Time;durP1;ratioP1;P1;durP2;ratioP2;P2;SDS_P1;SDS_P2;PMS_P1;PMS_P2;Temp;Humidity;BMP_temperature;BMP_pressure;BME280_temperature;BME280_humidity;BME280_pressure;Samples;Min_cycle;Max_cycle;Signal;HPM_P1;HPM_P2
2021/11/10 00:01:30;;;;;;;0.30;0.30;;;3.40;99.90;;;;;;4996481;28;20440;-81
2021/11/10 00:03:57;;;;;;;0.30;0.30;;;3.50;99.90;;;;;;4996631;28;20464;-81
2021/11/10 00:06:23;;;;;;;0.70;0.70;;;3.40;99.90;;;;;;4996404;28;20799;-81
2021/11/10 00:08:51;;;;;;;0.30;0.30;;;3.40;99.90;;;;;;4996561;28;20492;-81
2021/11/10 00:11:18;;;;;;;0.30;0.20;;;3.40;99.90;;;;;;4996046;28;20448;-81
2021/11/10 00:13:45;;;;;;;0.50;0.40;;;3.40;99.90;;;;;;4996442;28;20535;-81
2021/11/10 00:16:12;;;;;;;0.40;0.40;;;3.30;99.90;;;;;;4996244;28;20799;-81
2021/11/10 00:18:39;;;;;;;0.30;0.30;;;3.30;99.90;;;;;;4996430;28;20453;-81
2021/11/10 00:21:06;;;;;;;0.60;0.40;;;3.30;99.90;;;;;;4996049;28;21150;-81
2021/11/10 00:23:33;;;;;;;0.30;0.30;;;3.20;99.90;;;;;;4996348;28;20472;-81
2021/11/10 00:26:01;;;;;;;0.30;0.30;;;3.20;99.90;;;;;;5001139;28;20448;-81
2021/11/10 00:28:28;;;;;;;0.30;0.20;;;3.20;99.90;;;;;;4996146;28;20503;-81
2021/11/10 00:30:55;;;;;;;0.30;0.30;;;3.20;99.90;;;;;;4995879;28;20459;-81
2021/11/10 00:33:23;;;;;;;0.30;0.30;;;3.20;99.90;;;;;;4996287;28;20476;-81
2021/11/10 00:35:50;;;;;;;0.30;0.30;;;3.20;99.90;;;;;;4995828;28;20869;-81
2021/11/10 00:38:17;;;;;;;0.40;0.30;;;3.10;99.90;;;;;;4995882;28;20452;-81
2021/11/10 00:40:43;;;;;;;0.30;0.30;;;3.10;99.90;;;;;;4995797;28;20448;-81
2021/11/10 00:43:12;;;;;;;0.30;0.30;;;3.10;99.90;;;;;;4995548;28;20843;-81
2021/11/10 00:45:38;;;;;;;0.50;0.50;;;3.00;99.90;;;;;;4995907;28;20469;-81
2021/11/10 00:48:07;;;;;;;1.90;0.57;;;3.00;99.90;;;;;;4995769;28;20810;-81
2021/11/10 00:50:34;;;;;;;0.30;0.30;;;3.00;99.90;;;;;;4995773;28;20456;-81
2021/11/10 00:53:03;;;;;;;0.30;0.30;;;2.90;99.90;;;;;;4995407;28;20881;-81
2021/11/10 00:55:30;;;;;;;0.60;0.60;;;2.80;99.90;;;;;;4995408;28;20520;-81
2021/11/10 00:57:56;;;;;;;0.70;0.50;;;2.80;99.90;;;;;;4995638;28;20584;-81
2021/11/10 01:00:25;;;;;;;0.30;0.30;;;2.80;99.90;;;;;;4995630;28;20464;-81
2021/11/10 01:02:52;;;;;;;0.30;0.30;;;2.80;99.90;;;;;;4995240;28;20535;-81
2021/11/10 01:05:19;;;;;;;0.40;0.30;;;2.90;99.90;;;;;;4995709;28;20471;-81
2021/11/10 01:07:45;;;;;;;1.90;0.70;;;2.90;99.90;;;;;;4995514;28;20488;-81
2021/11/10 01:10:13;;;;;;;0.30;0.30;;;2.90;99.90;;;;;;4995102;28;20452;-81
2021/11/10 01:12:41;;;;;;;0.30;0.20;;;2.90;99.90;;;;;;4995069;28;20456;-81
2021/11/10 01:15:11;;;;;;;0.33;0.30;;;2.90;99.90;;;;;;4995202;28;20960;-81
2021/11/10 01:17:39;;;;;;;0.60;0.60;;;2.90;99.90;;;;;;4995479;28;20495;-81
2021/11/10 01:20:09;;;;;;;0.50;0.50;;;2.80;99.90;;;;;;4995271;28;20448;-81
2021/11/10 01:22:36;;;;;;;0.30;0.30;;;2.80;99.90;;;;;;4995200;28;20453;-81
2021/11/10 01:25:02;;;;;;;2.53;0.40;;;2.80;99.90;;;;;;4995319;28;20460;-81
2021/11/10 01:27:29;;;;;;;0.30;0.30;;;2.80;99.90;;;;;;4994713;28;21026;-81
2021/11/10 01:29:56;;;;;;;0.30;0.30;;;2.80;99.90;;;;;;4995090;28;20465;-81
2021/11/10 01:32:23;;;;;;;0.30;0.30;;;2.80;99.90;;;;;;4995069;28;20475;-81
2021/11/10 01:34:51;;;;;;;0.60;0.60;;;2.70;99.90;;;;;;4994686;28;20468;-81
2021/11/10 01:37:17;;;;;;;0.37;0.37;;;2.70;99.90;;;;;;4994923;28;20457;-81
2021/11/10 01:39:44;;;;;;;0.70;0.70;;;2.70;99.90;;;;;;4994887;28;20460;-81
2021/11/10 01:42:11;;;;;;;0.30;0.30;;;2.70;99.90;;;;;;4994852;28;20479;-81
2021/11/10 01:44:40;;;;;;;0.40;0.40;;;2.70;99.90;;;;;;4994473;28;20975;-80
2021/11/10 01:47:09;;;;;;;0.93;0.40;;;2.70;99.90;;;;;;4994673;28;20467;-81
2021/11/10 01:49:37;;;;;;;0.30;0.30;;;2.70;99.90;;;;;;4994389;28;20945;-81
2021/11/10 01:52:08;;;;;;;2.80;2.60;;;2.70;99.90;;;;;;4994655;28;20448;-81
2021/11/10 01:54:36;;;;;;;0.40;0.40;;;2.70;99.90;;;;;;4994499;28;20492;-81
2021/11/10 01:57:04;;;;;;;1.33;1.23;;;2.70;99.90;;;;;;4994549;28;20448;-81
2021/11/10 01:59:33;;;;;;;0.60;0.60;;;2.60;99.90;;;;;;4994292;28;20441;-81
2021/11/10 02:02:01;;;;;;;0.30;0.20;;;2.70;99.90;;;;;;4994485;28;20459;-81
2021/11/10 02:04:30;;;;;;;0.40;0.40;;;2.60;99.90;;;;;;4994424;28;20477;-81
2021/11/10 02:06:57;;;;;;;0.30;0.30;;;2.60;99.90;;;;;;4994668;28;20456;-81
2021/11/10 02:09:25;;;;;;;0.30;0.30;;;2.50;99.90;;;;;;4994296;28;20496;-80
2021/11/10 02:11:53;;;;;;;0.30;0.30;;;2.50;99.90;;;;;;4994084;28;20452;-81
2021/11/10 02:14:21;;;;;;;0.30;0.20;;;2.50;99.90;;;;;;4994265;28;20480;-81
2021/11/10 02:16:47;;;;;;;1.03;1.03;;;2.40;99.90;;;;;;4994263;28;20453;-81
2021/11/10 02:19:15;;;;;;;3.60;0.77;;;2.40;99.90;;;;;;4994257;28;20448;-81
2021/11/10 02:21:46;;;;;;;0.30;0.30;;;2.30;99.90;;;;;;4993405;28;20459;-81
2021/11/10 02:24:13;;;;;;;0.60;0.60;;;2.30;99.90;;;;;;4994153;28;20473;-81
2021/11/10 02:26:42;;;;;;;0.40;0.40;;;2.30;99.90;;;;;;4994134;28;20457;-80
2021/11/10 02:29:09;;;;;;;0.40;0.37;;;2.30;99.90;;;;;;4993820;28;20479;-81
2021/11/10 02:31:36;;;;;;;0.77;0.77;;;2.30;99.90;;;;;;4994065;28;20452;-81
2021/11/10 02:34:04;;;;;;;0.30;0.30;;;2.30;99.90;;;;;;4993965;28;20479;-81
2021/11/10 02:36:32;;;;;;;0.30;0.30;;;2.30;99.90;;;;;;4993762;28;20432;-81
2021/11/10 02:39:03;;;;;;;0.30;0.30;;;2.30;99.90;;;;;;4994030;28;20444;-81
2021/11/10 02:41:30;;;;;;;1.47;1.47;;;2.30;99.90;;;;;;4994427;28;20843;-81
2021/11/10 02:43:57;;;;;;;0.30;0.20;;;2.30;99.90;;;;;;4993876;28;20491;-81
2021/11/10 02:46:25;;;;;;;0.60;0.60;;;2.20;99.90;;;;;;4993918;28;20460;-81
2021/11/10 02:48:52;;;;;;;0.40;0.33;;;2.20;99.90;;;;;;4993851;28;20484;-81
2021/11/10 02:51:19;;;;;;;0.30;0.30;;;2.20;99.90;;;;;;4993680;28;20449;-81
2021/11/10 02:53:46;;;;;;;0.43;0.43;;;2.20;99.90;;;;;;4993773;28;20480;-81
2021/11/10 02:56:14;;;;;;;0.30;0.30;;;2.20;99.90;;;;;;4965887;28;20470;-81
2021/11/10 02:58:40;;;;;;;0.50;0.50;;;2.20;99.90;;;;;;4966118;28;20446;-81
2021/11/10 03:01:08;;;;;;;0.30;0.20;;;2.20;99.90;;;;;;4973914;28;20512;-81
2021/11/10 03:03:35;;;;;;;0.30;0.30;;;2.20;99.90;;;;;;4974005;28;20485;-81
2021/11/10 03:06:02;;;;;;;0.63;0.60;;;2.20;99.90;;;;;;4974344;28;20461;-81
2021/11/10 03:08:29;;;;;;;0.93;0.50;;;2.20;99.90;;;;;;4974230;28;20476;-81
2021/11/10 03:10:56;;;;;;;0.30;0.30;;;2.20;99.90;;;;;;4974562;28;20457;-81
2021/11/10 03:13:25;;;;;;;0.50;0.40;;;2.20;99.90;;;;;;4974250;28;20469;-81
2021/11/10 03:15:51;;;;;;;0.57;0.50;;;2.20;99.90;;;;;;4974284;28;20476;-81
2021/11/10 03:18:18;;;;;;;1.00;0.60;;;2.20;99.90;;;;;;4974035;28;20796;-81
2021/11/10 03:20:46;;;;;;;0.70;0.70;;;2.10;99.90;;;;;;4973904;28;20468;-81
2021/11/10 03:23:12;;;;;;;0.40;0.40;;;2.10;99.90;;;;;;4974138;28;20488;-81
2021/11/10 03:25:39;;;;;;;0.30;0.30;;;2.10;99.90;;;;;;4974012;28;20442;-81
2021/11/10 03:28:06;;;;;;;0.30;0.30;;;2.10;99.90;;;;;;4974116;28;20488;-81
2021/11/10 03:30:34;;;;;;;0.40;0.30;;;2.20;99.90;;;;;;4974185;28;20456;-81
2021/11/10 03:33:01;;;;;;;0.30;0.30;;;2.20;99.90;;;;;;4975371;28;20457;-81
2021/11/10 03:35:28;;;;;;;0.40;0.30;;;2.20;99.90;;;;;;4977781;28;20453;-81
2021/11/10 03:37:54;;;;;;;0.50;0.50;;;2.20;99.90;;;;;;4977427;28;20814;-81
2021/11/10 03:40:21;;;;;;;0.30;0.30;;;2.20;99.90;;;;;;4977719;28;20453;-80
2021/11/10 03:42:48;;;;;;;0.30;0.30;;;2.30;99.90;;;;;;4977195;28;20949;-81
2021/11/10 03:45:15;;;;;;;0.47;0.40;;;2.30;99.90;;;;;;4977669;28;20433;-81
2021/11/10 03:47:43;;;;;;;0.40;0.40;;;2.30;99.90;;;;;;4977623;28;20453;-81
2021/11/10 03:50:10;;;;;;;0.50;0.50;;;2.20;99.90;;;;;;4977545;28;20496;-81
2021/11/10 03:52:37;;;;;;;0.30;0.27;;;2.10;99.90;;;;;;4977304;28;20830;-81
2021/11/10 03:55:05;;;;;;;0.30;0.20;;;2.10;99.90;;;;;;4977195;28;20481;-81
2021/11/10 03:57:32;;;;;;;0.30;0.30;;;2.20;99.90;;;;;;4977402;28;20456;-81
2021/11/10 03:59:58;;;;;;;0.30;0.30;;;2.20;99.90;;;;;;4977363;28;20449;-81
2021/11/10 04:02:25;;;;;;;0.30;0.20;;;2.30;99.90;;;;;;4977297;28;20453;-80
2021/11/10 04:04:53;;;;;;;0.30;0.30;;;2.30;99.90;;;;;;4976888;28;20473;-81
2021/11/10 04:07:20;;;;;;;0.30;0.30;;;2.30;99.90;;;;;;4977197;28;20449;-81
2021/11/10 04:09:47;;;;;;;0.40;0.40;;;2.30;99.90;;;;;;4972313;28;21002;-81
2021/11/10 04:12:13;;;;;;;0.33;0.33;;;2.20;99.90;;;;;;4958479;28;20439;-81
2021/11/10 04:14:40;;;;;;;0.30;0.30;;;2.20;99.90;;;;;;4957414;28;20469;-81
2021/11/10 04:17:09;;;;;;;0.50;0.50;;;2.20;99.90;;;;;;4957745;28;20450;-81
2021/11/10 04:19:36;;;;;;;0.63;0.63;;;2.10;99.90;;;;;;4957906;28;20438;-81
2021/11/10 04:22:05;;;;;;;0.30;0.30;;;2.10;99.90;;;;;;4957637;28;20468;-81
2021/11/10 04:24:32;;;;;;;0.53;0.53;;;2.10;99.90;;;;;;4957286;28;21009;-81
2021/11/10 04:26:59;;;;;;;0.53;0.53;;;2.00;99.90;;;;;;4957644;28;20458;-81
2021/11/10 04:29:26;;;;;;;0.30;0.30;;;2.00;99.90;;;;;;4957574;28;20498;-81
2021/11/10 04:31:53;;;;;;;0.30;0.30;;;2.00;99.90;;;;;;4957485;28;20457;-81
2021/11/10 04:34:20;;;;;;;0.30;0.30;;;2.00;99.90;;;;;;4957421;28;20470;-81
2021/11/10 04:36:47;;;;;;;0.40;0.40;;;2.00;99.90;;;;;;4957399;28;20537;-81
2021/11/10 04:39:15;;;;;;;0.30;0.30;;;2.00;99.90;;;;;;4957343;28;20456;-81
2021/11/10 04:41:42;;;;;;;0.30;0.30;;;2.00;99.90;;;;;;4957373;28;20459;-81
2021/11/10 04:44:09;;;;;;;0.30;0.20;;;2.00;99.90;;;;;;4956691;28;20474;-81
2021/11/10 04:46:36;;;;;;;0.80;0.50;;;1.90;99.90;;;;;;4957389;28;20450;-80
2021/11/10 04:49:04;;;;;;;1.13;0.70;;;1.90;99.90;;;;;;4957176;28;20478;-81
2021/11/10 04:51:33;;;;;;;2.90;0.53;;;1.90;99.90;;;;;;4957099;28;20877;-81
2021/11/10 04:54:06;;;;;;;0.47;0.47;;;1.90;99.90;;;;;;4956953;28;20482;-81
2021/11/10 04:56:35;;;;;;;0.70;0.70;;;1.90;99.90;;;;;;4968413;28;20803;-81
2021/11/10 04:59:02;;;;;;;0.30;0.30;;;1.80;99.90;;;;;;4972540;28;20450;-81
2021/11/10 05:01:28;;;;;;;0.40;0.40;;;1.80;99.90;;;;;;4975915;28;20449;-81
2021/11/10 05:03:56;;;;;;;0.30;0.30;;;1.80;99.90;;;;;;4976111;28;20469;-81
2021/11/10 05:06:23;;;;;;;0.30;0.30;;;1.80;99.90;;;;;;4976091;28;20456;-81
2021/11/10 05:08:50;;;;;;;0.30;0.20;;;1.80;99.90;;;;;;4976017;28;20489;-81
2021/11/10 05:11:18;;;;;;;0.30;0.30;;;1.70;99.90;;;;;;4976089;28;20487;-81
2021/11/10 05:13:46;;;;;;;0.30;0.30;;;1.70;99.90;;;;;;4975575;28;20482;-81
2021/11/10 05:16:12;;;;;;;0.40;0.40;;;1.60;99.90;;;;;;4975648;28;20449;-81
2021/11/10 05:18:39;;;;;;;0.40;0.40;;;1.60;99.90;;;;;;4975874;28;20457;-81
2021/11/10 05:21:06;;;;;;;0.30;0.30;;;1.60;99.90;;;;;;4975618;28;20445;-81
2021/11/10 05:23:33;;;;;;;0.30;0.30;;;1.50;99.90;;;;;;4975758;28;20476;-81
2021/11/10 05:26:00;;;;;;;0.30;0.30;;;1.40;99.90;;;;;;4975802;28;20453;-81
2021/11/10 05:28:26;;;;;;;0.43;0.40;;;1.40;99.90;;;;;;4975951;28;20456;-81
2021/11/10 05:30:54;;;;;;;0.30;0.30;;;1.40;99.90;;;;;;4975734;28;20461;-81
2021/11/10 05:33:21;;;;;;;0.40;0.40;;;1.40;99.90;;;;;;4975580;28;20482;-81
2021/11/10 05:35:48;;;;;;;0.30;0.30;;;1.50;99.90;;;;;;4975617;28;20453;-81
2021/11/10 05:38:15;;;;;;;0.30;0.30;;;1.50;99.90;;;;;;4975660;28;20446;-81
2021/11/10 05:40:42;;;;;;;0.57;0.57;;;1.50;99.90;;;;;;4975188;28;20441;-81
2021/11/10 05:43:09;;;;;;;0.30;0.30;;;1.40;99.90;;;;;;4975330;28;20473;-81
2021/11/10 05:45:35;;;;;;;0.50;0.50;;;1.40;99.90;;;;;;4975431;28;20456;-81
2021/11/10 05:48:04;;;;;;;0.47;0.47;;;1.40;99.90;;;;;;4975638;28;20456;-81
2021/11/10 05:50:31;;;;;;;0.30;0.30;;;1.40;99.90;;;;;;4975218;28;20497;-81
2021/11/10 05:52:58;;;;;;;0.30;0.30;;;1.40;99.90;;;;;;4974996;28;20469;-81
2021/11/10 05:55:25;;;;;;;0.30;0.30;;;1.30;99.90;;;;;;4974104;28;20559;-81
2021/11/10 05:57:53;;;;;;;0.30;0.30;;;1.40;99.90;;;;;;4975202;28;20449;-81
2021/11/10 06:00:21;;;;;;;0.30;0.30;;;1.40;99.90;;;;;;4975131;28;20454;-81
2021/11/10 06:02:48;;;;;;;0.30;0.30;;;1.40;99.90;;;;;;4975038;28;20457;-81
2021/11/10 06:05:18;;;;;;;0.30;0.20;;;1.40;99.90;;;;;;4970009;28;20969;-81
2021/11/10 06:07:45;;;;;;;0.40;0.30;;;1.40;99.90;;;;;;4974304;28;20452;-81
2021/11/10 06:10:13;;;;;;;0.30;0.30;;;1.40;99.90;;;;;;4974912;28;20481;-81
2021/11/10 06:12:40;;;;;;;0.30;0.20;;;1.40;99.90;;;;;;4974552;28;20458;-81
2021/11/10 06:15:08;;;;;;;0.30;0.30;;;1.40;99.90;;;;;;4974896;28;20456;-81
2021/11/10 06:17:35;;;;;;;0.80;0.80;;;1.40;99.90;;;;;;4975009;28;20461;-81
2021/11/10 06:20:02;;;;;;;0.30;0.30;;;1.40;99.90;;;;;;4974804;28;20445;-81
2021/11/10 06:22:31;;;;;;;0.70;0.70;;;1.40;99.90;;;;;;4974764;28;20466;-81
2021/11/10 06:24:58;;;;;;;0.30;0.30;;;1.30;99.90;;;;;;4974448;28;20461;-81
2021/11/10 06:27:25;;;;;;;0.50;0.50;;;1.40;99.90;;;;;;4974522;28;20461;-81
2021/11/10 06:29:52;;;;;;;0.30;0.30;;;1.40;99.90;;;;;;4974658;28;20485;-81
2021/11/10 06:32:19;;;;;;;0.30;0.30;;;1.40;99.90;;;;;;4974868;28;20453;-81
2021/11/10 06:34:47;;;;;;;1.67;0.60;;;1.50;99.90;;;;;;4974291;28;20981;-81
2021/11/10 06:37:13;;;;;;;0.60;0.60;;;1.50;99.90;;;;;;4974391;28;20437;-81
2021/11/10 06:39:41;;;;;;;0.40;0.33;;;1.60;99.90;;;;;;4974587;28;20456;-81
2021/11/10 06:42:09;;;;;;;0.40;0.37;;;1.60;99.90;;;;;;4974318;28;20448;-81
2021/11/10 06:44:35;;;;;;;1.87;1.77;;;1.60;99.90;;;;;;4974235;28;20481;-81
2021/11/10 06:47:02;;;;;;;0.30;0.30;;;1.60;99.90;;;;;;4974160;28;20913;-81
2021/11/10 06:49:30;;;;;;;2.73;0.60;;;1.60;99.90;;;;;;4974387;28;20500;-81
2021/11/10 06:51:58;;;;;;;0.40;0.40;;;1.60;99.90;;;;;;4974142;28;20785;-81
2021/11/10 06:54:27;;;;;;;1.07;0.50;;;1.70;99.90;;;;;;4974126;28;20484;-81
2021/11/10 06:56:55;;;;;;;1.67;1.67;;;1.70;99.90;;;;;;4974428;28;20433;-81
2021/11/10 06:59:22;;;;;;;1.67;1.33;;;1.70;99.90;;;;;;4970284;28;20450;-81
2021/11/10 07:01:49;;;;;;;0.30;0.30;;;1.70;99.90;;;;;;4972489;28;20450;-81
2021/11/10 07:04:16;;;;;;;0.30;0.20;;;1.80;99.90;;;;;;4974150;28;20997;-81
2021/11/10 07:06:43;;;;;;;0.57;0.57;;;1.90;99.90;;;;;;4975613;28;20454;-81
2021/11/10 07:09:10;;;;;;;0.60;0.60;;;1.90;99.90;;;;;;4977931;28;21007;-81
2021/11/10 07:11:37;;;;;;;0.30;0.30;;;2.00;99.90;;;;;;4978196;28;20827;-81
2021/11/10 07:14:08;;;;;;;1.57;0.73;;;2.00;99.90;;;;;;4977905;28;20474;-81
2021/11/10 07:16:35;;;;;;;0.30;0.20;;;2.10;99.90;;;;;;4978249;28;20433;-81
2021/11/10 07:19:02;;;;;;;1.33;0.53;;;2.20;99.90;;;;;;4977866;28;20449;-81
2021/11/10 07:21:29;;;;;;;0.67;0.53;;;2.20;99.90;;;;;;4977982;28;20448;-81
2021/11/10 07:23:57;;;;;;;0.30;0.30;;;2.30;99.90;;;;;;4978771;28;20808;-81
2021/11/10 07:26:24;;;;;;;0.30;0.20;;;2.30;99.90;;;;;;4977689;28;20453;-81
2021/11/10 07:28:51;;;;;;;0.40;0.40;;;2.40;99.90;;;;;;4977624;28;20464;-81
2021/11/10 07:31:20;;;;;;;0.40;0.40;;;2.50;99.90;;;;;;4971604;28;20885;-81
2021/11/10 07:33:46;;;;;;;0.30;0.30;;;2.50;99.90;;;;;;4960219;28;20833;-81
2021/11/10 07:36:13;;;;;;;0.53;0.53;;;2.60;99.90;;;;;;4977715;28;20460;-81
2021/11/10 07:38:40;;;;;;;1.17;0.50;;;2.70;99.90;;;;;;4977692;28;20449;-81
2021/11/10 07:41:08;;;;;;;0.73;0.50;;;2.70;99.90;;;;;;4977690;28;20845;-81
2021/11/10 07:43:35;;;;;;;0.47;0.47;;;2.70;99.90;;;;;;4977518;28;20465;-81
2021/11/10 07:46:08;;;;;;;0.57;0.57;;;2.80;99.90;;;;;;4977651;28;20449;-81
2021/11/10 07:48:36;;;;;;;0.30;0.30;;;2.90;99.90;;;;;;4977334;28;20444;-81
2021/11/10 07:51:03;;;;;;;1.07;0.40;;;2.90;99.90;;;;;;4977471;28;20489;-81
2021/11/10 07:53:30;;;;;;;0.40;0.40;;;2.90;99.90;;;;;;4977370;28;20484;-81
2021/11/10 07:55:57;;;;;;;0.63;0.63;;;2.90;99.90;;;;;;4976404;28;20481;-81
2021/11/10 07:58:24;;;;;;;0.30;0.30;;;2.90;99.90;;;;;;4961428;28;20449;-81
2021/11/10 08:00:51;;;;;;;1.00;0.50;;;3.00;99.90;;;;;;4975772;28;20457;-81
2021/11/10 08:03:18;;;;;;;0.80;0.40;;;3.10;99.90;;;;;;4977273;28;20527;-81
2021/11/10 08:05:46;;;;;;;0.40;0.30;;;3.10;99.90;;;;;;4977264;28;20480;-81
2021/11/10 08:08:13;;;;;;;0.30;0.30;;;3.20;99.90;;;;;;4976959;28;20819;-81
2021/11/10 08:10:40;;;;;;;0.30;0.30;;;3.30;99.90;;;;;;4976804;28;20501;-81
2021/11/10 08:13:06;;;;;;;0.50;0.50;;;3.30;99.90;;;;;;4977048;28;20564;-81
2021/11/10 08:15:35;;;;;;;0.30;0.30;;;3.40;99.90;;;;;;4976847;28;20453;-80
2021/11/10 08:18:02;;;;;;;0.30;0.30;;;3.40;99.90;;;;;;4976514;28;20893;-80
2021/11/10 08:20:29;;;;;;;1.87;0.43;;;3.50;99.90;;;;;;4976738;28;20445;-80
2021/11/10 08:22:57;;;;;;;0.90;0.90;;;3.60;99.90;;;;;;4976905;28;20469;-80
2021/11/10 08:25:24;;;;;;;0.60;0.50;;;3.60;99.90;;;;;;4976827;28;20536;-80
2021/11/10 08:27:51;;;;;;;0.30;0.20;;;3.60;99.90;;;;;;4976852;28;20448;-81
2021/11/10 08:30:20;;;;;;;1.10;1.07;;;3.60;99.90;;;;;;4976579;28;20481;-80
2021/11/10 08:32:49;;;;;;;0.50;0.50;;;3.60;99.90;;;;;;4976675;28;20500;-80
2021/11/10 08:35:16;;;;;;;0.30;0.30;;;3.70;99.90;;;;;;4976858;28;20489;-80
2021/11/10 08:37:43;;;;;;;0.40;0.30;;;3.90;99.90;;;;;;4976944;28;20422;-81
2021/11/10 08:40:13;;;;;;;0.30;0.30;;;3.90;99.90;;;;;;4976620;28;20429;-80
2021/11/10 08:42:40;;;;;;;0.30;0.20;;;4.10;99.90;;;;;;4976212;28;20846;-81
2021/11/10 08:45:10;;;;;;;0.50;0.50;;;4.10;99.90;;;;;;4976538;28;20448;-80
2021/11/10 08:47:37;;;;;;;0.30;0.30;;;4.20;99.90;;;;;;4976264;28;20422;-80
2021/11/10 08:50:07;;;;;;;0.30;0.30;;;4.30;99.90;;;;;;4976083;28;20473;-81
2021/11/10 08:52:35;;;;;;;0.80;0.80;;;4.30;99.90;;;;;;4976350;28;20453;-80
2021/11/10 08:55:01;;;;;;;0.30;0.30;;;4.40;99.90;;;;;;4975834;28;20900;-81
2021/11/10 08:57:30;;;;;;;0.30;0.30;;;4.50;99.90;;;;;;4976103;28;20957;-81
2021/11/10 08:59:56;;;;;;;0.30;0.30;;;4.50;99.90;;;;;;4976028;28;20426;-80
2021/11/10 09:02:23;;;;;;;0.30;0.30;;;4.60;99.90;;;;;;4976188;28;20461;-80
2021/11/10 09:04:50;;;;;;;0.70;0.70;;;4.70;99.90;;;;;;4975878;28;21008;-80
2021/11/10 09:07:17;;;;;;;0.40;0.40;;;4.80;99.90;;;;;;4975912;28;20422;-80
2021/11/10 09:09:44;;;;;;;0.30;0.30;;;4.90;99.90;;;;;;4975679;28;20438;-80
2021/11/10 09:12:11;;;;;;;0.40;0.40;;;5.00;99.90;;;;;;4976178;28;20533;-80
2021/11/10 09:14:39;;;;;;;0.30;0.30;;;5.00;99.90;;;;;;4975878;28;20477;-80
2021/11/10 09:17:06;;;;;;;3.03;1.33;;;5.10;99.90;;;;;;4975898;28;20449;-80
2021/11/10 09:19:33;;;;;;;0.30;0.20;;;5.10;99.90;;;;;;4975892;28;20438;-80
2021/11/10 09:22:00;;;;;;;0.60;0.60;;;5.10;99.90;;;;;;4975806;28;20524;-80
2021/11/10 09:24:27;;;;;;;0.30;0.30;;;5.20;99.90;;;;;;4975379;28;20473;-80
2021/11/10 09:26:54;;;;;;;0.40;0.40;;;5.10;99.90;;;;;;4975514;28;20781;-80
2021/11/10 09:29:21;;;;;;;0.97;0.50;;;5.20;99.90;;;;;;4975595;28;20541;-80
2021/11/10 09:31:49;;;;;;;0.30;0.20;;;5.30;99.90;;;;;;4975604;28;20473;-80
2021/11/10 09:34:16;;;;;;;0.40;0.40;;;5.40;99.90;;;;;;4975557;28;20484;-81
2021/11/10 09:36:47;;;;;;;0.60;0.60;;;5.60;99.90;;;;;;4975556;28;20434;-81
2021/11/10 09:39:14;;;;;;;0.50;0.50;;;5.80;99.90;;;;;;4969573;28;20875;-81
2021/11/10 09:41:42;;;;;;;0.50;0.50;;;6.10;99.90;;;;;;4967404;28;20458;-81
2021/11/10 09:44:10;;;;;;;0.47;0.47;;;6.30;99.90;;;;;;4967332;28;20466;-81
2021/11/10 09:46:39;;;;;;;0.40;0.40;;;6.30;99.90;;;;;;4959745;28;20911;-81
2021/11/10 09:49:08;;;;;;;1.73;1.67;;;6.30;99.90;;;;;;4971720;28;20443;-81
2021/11/10 09:51:35;;;;;;;0.73;0.73;;;6.30;99.90;;;;;;4962522;28;20473;-80
2021/11/10 09:54:03;;;;;;;0.97;0.77;;;6.20;99.90;;;;;;4964386;28;20470;-81
2021/11/10 09:56:30;;;;;;;0.50;0.50;;;6.00;99.90;;;;;;4955902;28;20890;-80
2021/11/10 09:58:57;;;;;;;1.33;0.50;;;5.90;99.90;;;;;;4955555;29;20426;-80
2021/11/10 10:01:25;;;;;;;0.60;0.60;;;5.80;99.90;;;;;;4955785;29;20458;-80
2021/11/10 10:03:52;;;;;;;0.40;0.40;;;5.70;99.90;;;;;;4955738;29;20466;-80
2021/11/10 10:06:22;;;;;;;0.47;0.47;;;5.70;99.90;;;;;;4955627;28;20461;-80
2021/11/10 10:08:48;;;;;;;0.80;0.80;;;5.70;99.90;;;;;;4955577;29;20455;-80
2021/11/10 10:11:16;;;;;;;0.63;0.63;;;5.70;99.90;;;;;;4955378;29;20851;-80
2021/11/10 10:13:43;;;;;;;0.50;0.50;;;5.80;99.90;;;;;;4955505;29;20474;-81
2021/11/10 10:16:10;;;;;;;0.80;0.70;;;6.00;99.90;;;;;;4955645;29;20466;-80
2021/11/10 10:18:38;;;;;;;0.30;0.30;;;6.10;99.90;;;;;;4955507;29;20439;-81
2021/11/10 10:21:06;;;;;;;0.40;0.40;;;6.20;99.90;;;;;;4955506;29;20434;-81
2021/11/10 10:23:38;;;;;;;2.50;0.80;;;6.40;99.90;;;;;;4955348;29;20470;-81
2021/11/10 10:26:07;;;;;;;0.60;0.60;;;6.50;99.90;;;;;;4970083;28;20449;-80
2021/11/10 10:28:36;;;;;;;0.50;0.43;;;6.60;99.90;;;;;;4974260;28;20450;-81
2021/11/10 10:31:06;;;;;;;0.53;0.37;;;6.70;99.90;;;;;;4974355;28;20481;-80
2021/11/10 10:33:38;;;;;;;0.67;0.67;;;6.80;99.90;;;;;;4974307;28;21028;-80
2021/11/10 10:36:07;;;;;;;0.60;0.60;;;6.80;99.90;;;;;;4974385;28;20425;-80
2021/11/10 10:38:42;;;;;;;0.80;0.80;;;6.80;99.90;;;;;;4971875;28;20473;-80
2021/11/10 10:41:10;;;;;;;0.30;0.30;;;6.80;99.90;;;;;;4955694;28;20898;-80
2021/11/10 10:43:42;;;;;;;0.73;0.73;;;6.90;99.90;;;;;;4969762;28;20993;-81
2021/11/10 10:46:10;;;;;;;3.50;1.00;;;7.00;99.90;;;;;;4963313;28;20448;-81
2021/11/10 10:48:38;;;;;;;1.37;0.60;;;7.20;99.90;;;;;;4960625;28;20439;-88
2021/11/10 10:51:12;;;;;;;1.93;0.43;;;7.40;99.90;;;;;;4971574;28;20473;-88
2021/11/10 10:53:43;;;;;;;1.63;0.83;;;7.50;99.90;;;;;;4959912;28;20884;-87
2021/11/10 10:56:22;;;;;;;2.07;0.53;;;7.80;99.90;;;;;;4966129;28;20487;-87
2021/11/10 10:58:51;;;;;;;0.97;0.97;;;8.10;99.90;;;;;;4954972;28;20440;-86
2021/11/10 11:01:21;;;;;;;0.50;0.40;;;8.40;99.90;;;;;;4955735;29;20438;-87
2021/11/10 11:03:49;;;;;;;0.40;0.40;;;8.60;99.90;;;;;;4955613;29;20486;-86
2021/11/10 11:06:23;;;;;;;0.50;0.50;;;8.80;99.90;;;;;;4955547;29;20434;-86
2021/11/10 11:08:52;;;;;;;1.10;1.10;;;9.00;99.90;;;;;;4955662;29;20439;-87
2021/11/10 11:11:39;;;;;;;0.63;0.43;;;9.10;99.90;;;;;;4955536;29;20486;-87
2021/11/10 11:14:14;;;;;;;1.10;0.90;;;9.10;99.90;;;;;;4955365;29;20572;-87
2021/11/10 11:16:43;;;;;;;1.03;0.60;;;9.10;99.90;;;;;;4955920;29;20438;-87
2021/11/10 11:19:15;;;;;;;1.00;1.00;;;9.10;99.90;;;;;;4955863;29;20438;-87
2021/11/10 11:21:54;;;;;;;1.33;1.23;;;9.10;99.90;;;;;;4955548;29;20511;-87
2021/11/10 11:24:31;;;;;;;1.07;0.90;;;9.20;99.90;;;;;;4955172;29;20477;-87
2021/11/10 11:27:10;;;;;;;3.13;1.30;;;9.30;99.90;;;;;;4955513;29;20439;-87
2021/11/10 11:29:37;;;;;;;0.40;0.40;;;9.30;99.90;;;;;;4955150;29;20433;-86
2021/11/10 11:32:18;;;;;;;1.80;1.17;;;9.20;99.90;;;;;;4954751;29;20485;-86
2021/11/10 11:34:51;;;;;;;0.80;0.80;;;9.20;99.90;;;;;;4955015;29;20485;-86
2021/11/10 11:37:18;;;;;;;0.90;0.90;;;9.20;99.90;;;;;;4955285;29;20434;-86
2021/11/10 11:39:46;;;;;;;0.47;0.40;;;9.20;99.90;;;;;;4955346;29;20447;-86
2021/11/10 11:42:13;;;;;;;0.67;0.67;;;9.20;99.90;;;;;;4955189;29;20437;-86
2021/11/10 11:44:40;;;;;;;0.50;0.43;;;9.20;99.90;;;;;;4954928;29;20477;-86
2021/11/10 11:47:08;;;;;;;2.10;0.60;;;9.10;99.90;;;;;;4955323;29;20446;-86
2021/11/10 11:49:39;;;;;;;0.93;0.87;;;9.20;99.90;;;;;;4955078;29;20419;-85
2021/11/10 11:52:09;;;;;;;1.10;0.67;;;9.10;99.90;;;;;;4954853;29;20478;-86
2021/11/10 11:54:39;;;;;;;1.80;0.60;;;9.10;99.90;;;;;;4957049;29;20482;-86
2021/11/10 11:57:11;;;;;;;0.60;0.60;;;9.20;99.90;;;;;;4958583;29;20450;-86
2021/11/10 11:59:39;;;;;;;4.93;1.20;;;9.20;99.90;;;;;;4958520;29;20493;-86
2021/11/10 12:02:23;;;;;;;0.73;0.60;;;9.20;99.90;;;;;;4958426;29;20439;-86
2021/11/10 12:04:50;;;;;;;2.87;1.17;;;9.30;99.90;;;;;;4958255;29;20478;-86
2021/11/10 12:07:45;;;;;;;2.50;1.13;;;9.40;99.90;;;;;;4958457;29;20435;-86
2021/11/10 12:10:40;;;;;;;0.73;0.63;;;9.40;99.90;;;;;;4958364;29;20444;-86
2021/11/10 12:13:19;;;;;;;2.63;0.50;;;9.50;99.90;;;;;;4958137;29;20470;-86
2021/11/10 12:16:19;;;;;;;0.60;0.60;;;9.50;99.90;;;;;;4957952;29;20493;-86
2021/11/10 12:18:49;;;;;;;1.73;0.90;;;9.60;99.90;;;;;;4958238;29;20466;-86
2021/11/10 12:21:21;;;;;;;0.50;0.50;;;9.70;99.90;;;;;;4958282;29;20441;-86
2021/11/10 12:24:20;;;;;;;0.50;0.50;;;9.80;99.90;;;;;;4957737;29;20505;-85
2021/11/10 12:27:19;;;;;;;1.00;0.53;;;9.80;99.90;;;;;;4936801;29;20454;-86
2021/11/10 12:30:00;;;;;;;0.60;0.50;;;9.70;99.90;;;;;;4958271;29;20442;-86
2021/11/10 12:32:59;;;;;;;0.63;0.50;;;9.70;99.90;;;;;;4958068;29;20470;-86
2021/11/10 12:35:41;;;;;;;0.83;0.80;;;9.70;99.90;;;;;;4957797;29;20465;-85
2021/11/10 12:38:18;;;;;;;0.70;0.63;;;9.70;99.90;;;;;;4957866;29;20473;-86
2021/11/10 12:40:49;;;;;;;0.70;0.70;;;9.70;99.90;;;;;;4957818;29;20525;-86
2021/11/10 12:43:19;;;;;;;0.70;0.70;;;9.70;99.90;;;;;;4957570;29;20482;-85
2021/11/10 12:45:58;;;;;;;0.80;0.80;;;9.70;99.90;;;;;;4957420;29;20426;-86
2021/11/10 12:48:31;;;;;;;1.07;0.60;;;9.70;99.90;;;;;;4957555;29;20823;-86
2021/11/10 12:51:17;;;;;;;0.60;0.60;;;9.70;99.90;;;;;;4957609;29;20427;-86
2021/11/10 12:53:46;;;;;;;1.33;0.60;;;9.60;99.90;;;;;;4957255;29;20958;-86
2021/11/10 12:56:14;;;;;;;2.10;0.93;;;9.60;99.90;;;;;;4957014;29;20490;-86
2021/11/10 12:58:41;;;;;;;1.83;0.90;;;9.60;99.90;;;;;;4957524;29;20441;-86
2021/11/10 13:01:13;;;;;;;2.00;0.60;;;9.60;99.90;;;;;;4957512;29;20435;-86
2021/11/10 13:03:41;;;;;;;0.40;0.40;;;9.50;99.90;;;;;;4957113;28;20836;-86
2021/11/10 13:06:12;;;;;;;1.00;1.00;;;9.50;99.90;;;;;;4956992;29;20498;-86